Time;durP1;ratioP1;P1;durP2;ratioP2;P2;SDS_P1;SDS_P2;PMS_P1;PMS_P2;Temp;Humidity;BMP_temperature;BMP_pressure;BME280_temperature;BME280_humidity;BME280_pressure;Samples;Min_cycle;Max_cycle;Signal;HPM_P1;HPM_P2
2023/10/04 05:47:39;;;;;;;5.28;1.92;;;;;;;;;;10584036;27;20423;-89
2023/10/04 05:52:52;;;;;;;6.13;2.13;;;;;;;;;;10581938;28;20050;-88
2023/10/04 05:57:54;;;;;;;4.22;1.70;;;;;;;;;;10591577;22;20365;-85
2023/10/04 06:02:58;;;;;;;5.13;1.58;;;;;;;;;;10533006;28;20028;-85
2023/10/04 06:08:00;;;;;;;5.30;1.73;;;;;;;;;;10538720;28;20023;-86
2023/10/04 06:13:01;;;;;;;5.22;2.08;;;;;;;;;;10565950;28;20028;-85
2023/10/04 06:18:02;;;;;;;5.70;2.22;;;;;;;;;;10584030;28;20047;-85
2023/10/04 06:23:09;;;;;;;6.05;2.83;;;;;;;;;;10622056;27;20024;-84
2023/10/04 06:28:10;;;;;;;4.28;1.88;;;;;;;;;;10601959;28;20047;-85
2023/10/04 06:33:11;;;;;;;6.85;2.85;;;;;;;;;;10560887;28;20113;-86
2023/10/04 06:38:13;;;;;;;6.65;2.67;;;;;;;;;;10563889;28;20020;-86
2023/10/04 06:43:14;;;;;;;3.53;2.10;;;;;;;;;;10593768;28;20028;-86
2023/10/04 06:48:15;;;;;;;5.47;2.25;;;;;;;;;;10598745;28;20054;-85
2023/10/04 06:53:17;;;;;;;8.82;4.25;;;;;;;;;;10588851;28;20036;-85
2023/10/04 06:58:18;;;;;;;7.80;3.08;;;;;;;;;;10576163;28;20067;-84
2023/10/04 07:03:19;;;;;;;7.18;2.65;;;;;;;;;;10553437;28;20028;-83
2023/10/04 07:08:21;;;;;;;5.82;2.42;;;;;;;;;;10565110;28;20028;-85
2023/10/04 07:13:22;;;;;;;7.88;3.60;;;;;;;;;;10545839;28;20024;-84
2023/10/04 07:18:23;;;;;;;6.43;3.28;;;;;;;;;;10546001;28;20045;-86
2023/10/04 07:23:24;;;;;;;9.00;4.03;;;;;;;;;;10547573;28;20017;-85
2023/10/04 07:28:25;;;;;;;8.35;3.60;;;;;;;;;;10542662;28;20035;-84
2023/10/04 07:33:26;;;;;;;8.73;3.33;;;;;;;;;;10562973;28;20123;-83
2023/10/04 07:38:27;;;;;;;10.07;3.78;;;;;;;;;;10542648;28;20024;-83
2023/10/04 07:43:29;;;;;;;7.95;3.65;;;;;;;;;;10557588;28;20028;-83
2023/10/04 07:48:31;;;;;;;7.00;3.40;;;;;;;;;;10543142;28;20167;-82
2023/10/04 07:53:32;;;;;;;10.00;3.50;;;;;;;;;;10548857;28;20110;-81
2023/10/04 07:58:33;;;;;;;8.68;3.63;;;;;;;;;;10556912;28;20054;-81
2023/10/04 08:03:34;;;;;;;8.48;3.47;;;;;;;;;;10551936;28;20024;-81
2023/10/04 08:08:35;;;;;;;7.75;3.60;;;;;;;;;;10537358;28;20131;-81
2023/10/04 08:13:36;;;;;;;8.18;3.15;;;;;;;;;;10574745;28;20442;-81
2023/10/04 08:18:37;;;;;;;9.70;3.30;;;;;;;;;;10546871;28;20028;-82
2023/10/04 08:23:38;;;;;;;7.88;3.30;;;;;;;;;;10535169;28;20086;-82
2023/10/04 08:28:41;;;;;;;9.15;3.65;;;;;;;;;;10555954;28;20034;-82
2023/10/04 08:33:48;;;;;;;8.45;3.53;;;;;;;;;;10534977;28;20028;-83
2023/10/04 08:38:50;;;;;;;6.53;3.20;;;;;;;;;;10534442;28;20130;-82
2023/10/04 08:43:51;;;;;;;10.15;3.63;;;;;;;;;;10556133;28;20024;-82
2023/10/04 08:48:53;;;;;;;8.05;3.28;;;;;;;;;;10538195;28;20502;-81
2023/10/04 08:54:06;;;;;;;7.32;3.45;;;;;;;;;;10536347;28;20044;-81
2023/10/04 08:59:07;;;;;;;9.80;3.58;;;;;;;;;;10540140;28;20036;-81
2023/10/04 09:04:09;;;;;;;7.40;3.40;;;;;;;;;;10538220;28;20044;-80
2023/10/04 09:09:11;;;;;;;7.72;3.72;;;;;;;;;;10535294;28;20372;-82
2023/10/04 09:14:14;;;;;;;7.15;4.20;;;;;;;;;;10551914;28;20388;-81
2023/10/04 09:19:19;;;;;;;9.85;4.00;;;;;;;;;;10528795;28;20047;-80
2023/10/04 09:24:20;;;;;;;7.18;3.63;;;;;;;;;;10526297;28;20095;-84
2023/10/04 09:29:31;;;;;;;9.85;4.18;;;;;;;;;;10538099;28;20031;-82
2023/10/04 09:34:33;;;;;;;7.78;4.03;;;;;;;;;;10537083;28;20058;-82
2023/10/04 09:39:36;;;;;;;8.13;3.97;;;;;;;;;;10536034;28;20035;-82
2023/10/04 09:44:38;;;;;;;9.52;3.83;;;;;;;;;;10534875;28;20026;-82
2023/10/04 09:49:48;;;;;;;11.25;3.70;;;;;;;;;;10534354;28;20026;-82
2023/10/04 09:54:51;;;;;;;;;;;;;;;;;;10538733;28;20020;-82
2023/10/04 09:59:52;;;;;;;11.93;4.22;;;;;;;;;;10558166;28;19967;-82
2023/10/04 10:04:53;;;;;;;7.20;3.58;;;;;;;;;;10540836;28;20127;-81
2023/10/04 10:10:12;;;;;;;7.72;3.55;;;;;;;;;;10540684;28;20474;-82
2023/10/04 10:15:13;;;;;;;9.32;3.65;;;;;;;;;;10541360;28;20039;-81
2023/10/04 10:20:15;;;;;;;8.98;3.92;;;;;;;;;;10539138;28;20020;-82
2023/10/04 10:25:16;;;;;;;10.98;4.47;;;;;;;;;;10534455;28;20028;-82
2023/10/04 10:30:18;;;;;;;8.95;3.80;;;;;;;;;;10533570;28;20020;-82
2023/10/04 10:35:39;;;;;;;8.65;4.68;;;;;;;;;;10541646;28;20073;-81
2023/10/04 10:40:41;;;;;;;;;;;;;;;;;;10540004;28;20020;-80
2023/10/04 10:45:42;;;;;;;10.60;3.90;;;;;;;;;;10565138;28;19921;-80
2023/10/04 10:50:44;;;;;;;8.88;3.92;;;;;;;;;;10548032;28;20024;-80
2023/10/04 10:55:45;;;;;;;10.68;4.18;;;;;;;;;;10548128;28;20024;-80
2023/10/04 11:00:46;;;;;;;7.15;3.70;;;;;;;;;;10546418;28;20071;-81
2023/10/04 11:05:47;;;;;;;7.43;3.30;;;;;;;;;;10559893;28;20028;-79
2023/10/04 11:10:48;;;;;;;11.57;4.07;;;;;;;;;;10556955;28;20038;-80
2023/10/04 11:15:52;;;;;;;7.47;4.20;;;;;;;;;;10541286;28;20084;-80
2023/10/04 11:21:00;;;;;;;7.97;3.90;;;;;;;;;;10558549;28;20028;-80
2023/10/04 11:26:01;;;;;;;7.68;3.50;;;;;;;;;;10540745;28;20100;-79
2023/10/04 11:31:02;;;;;;;8.02;3.47;;;;;;;;;;10540734;28;20038;-79
2023/10/04 11:36:03;;;;;;;8.57;3.40;;;;;;;;;;10533979;28;20028;-82
2023/10/04 11:41:05;;;;;;;7.07;3.25;;;;;;;;;;10532585;28;20398;-81
2023/10/04 11:46:08;;;;;;;6.47;2.95;;;;;;;;;;10550011;28;20036;-82
2023/10/04 11:51:09;;;;;;;9.98;3.72;;;;;;;;;;10531146;28;20387;-81
2023/10/04 11:56:10;;;;;;;6.28;3.50;;;;;;;;;;10531284;28;20483;-80
2023/10/04 12:01:15;;;;;;;6.68;3.10;;;;;;;;;;10541845;28;20102;-81
2023/10/04 12:06:26;;;;;;;7.18;3.33;;;;;;;;;;10537565;28;20123;-82
2023/10/04 12:11:33;;;;;;;8.00;3.35;;;;;;;;;;10534819;28;20054;-81
2023/10/04 12:16:41;;;;;;;6.80;2.92;;;;;;;;;;10535739;28;20024;-81
2023/10/04 12:21:43;;;;;;;5.68;2.90;;;;;;;;;;10535353;28;20079;-82
2023/10/04 12:26:44;;;;;;;6.95;2.80;;;;;;;;;;10536018;28;20031;-82
2023/10/04 12:31:45;;;;;;;8.68;3.45;;;;;;;;;;10536867;28;20024;-82
2023/10/04 12:36:46;;;;;;;8.43;3.65;;;;;;;;;;10535285;28;20032;-81
2023/10/04 12:41:47;;;;;;;7.88;3.40;;;;;;;;;;10532177;28;20534;-82
2023/10/04 12:46:48;;;;;;;7.88;3.50;;;;;;;;;;10534838;28;20023;-83
2023/10/04 12:51:50;;;;;;;11.90;3.70;;;;;;;;;;10533038;28;20031;-81
2023/10/04 12:56:51;;;;;;;7.95;3.50;;;;;;;;;;10532363;28;20133;-82
2023/10/04 13:01:56;;;;;;;10.27;3.70;;;;;;;;;;10530581;28;20054;-80
2023/10/04 13:06:57;;;;;;;7.68;3.22;;;;;;;;;;10546644;28;20035;-81
2023/10/04 13:11:58;;;;;;;6.85;3.30;;;;;;;;;;10526171;28;20035;-80
2023/10/04 13:17:00;;;;;;;7.20;3.42;;;;;;;;;;10529439;28;20434;-81
2023/10/04 13:22:01;;;;;;;6.90;3.70;;;;;;;;;;10527793;28;20488;-81
2023/10/04 13:27:03;;;;;;;8.45;3.58;;;;;;;;;;10528573;28;20020;-80
2023/10/04 13:32:05;;;;;;;6.78;3.25;;;;;;;;;;10529132;28;20039;-81
2023/10/04 13:37:06;;;;;;;5.68;3.08;;;;;;;;;;10528739;28;20062;-81
2023/10/04 13:42:07;;;;;;;8.63;4.03;;;;;;;;;;10549111;28;20047;-82
2023/10/04 13:47:08;;;;;;;8.10;3.53;;;;;;;;;;10532014;28;20041;-83
2023/10/04 13:52:10;;;;;;;7.07;3.38;;;;;;;;;;10531186;28;20202;-84
2023/10/04 13:57:12;;;;;;;9.60;3.70;;;;;;;;;;10530178;28;20035;-82
2023/10/04 14:02:13;;;;;;;7.88;3.70;;;;;;;;;;10531424;28;20081;-84
2023/10/04 14:07:16;;;;;;;6.80;3.80;;;;;;;;;;10537587;28;20574;-84
2023/10/04 14:12:20;;;;;;;7.50;3.70;;;;;;;;;;10556213;28;20031;-80
2023/10/04 14:17:21;;;;;;;7.63;4.03;;;;;;;;;;10547091;28;20119;-80
2023/10/04 14:22:22;;;;;;;9.80;4.07;;;;;;;;;;10548814;28;20017;-81
2023/10/04 14:27:24;;;;;;;8.75;4.65;;;;;;;;;;10533980;28;20039;-80
2023/10/04 14:32:25;;;;;;;7.97;3.97;;;;;;;;;;10535923;28;20039;-81
2023/10/04 14:37:26;;;;;;;7.53;4.32;;;;;;;;;;10534967;28;20028;-79
2023/10/04 14:42:27;;;;;;;8.15;4.30;;;;;;;;;;10534199;28;20048;-79
2023/10/04 14:47:28;;;;;;;7.35;4.05;;;;;;;;;;10551273;28;20027;-79
2023/10/04 14:52:30;;;;;;;7.75;3.92;;;;;;;;;;10532478;28;20026;-79
2023/10/04 14:57:31;;;;;;;8.48;4.18;;;;;;;;;;10549626;28;20028;-79
2023/10/04 15:02:34;;;;;;;7.75;3.88;;;;;;;;;;10531824;28;20058;-79
2023/10/04 15:07:35;;;;;;;6.53;3.60;;;;;;;;;;10532803;28;20020;-80
2023/10/04 15:12:36;;;;;;;8.30;4.13;;;;;;;;;;10533268;28;20077;-80
2023/10/04 15:17:38;;;;;;;7.85;3.72;;;;;;;;;;10553220;28;20428;-80
2023/10/04 15:22:39;;;;;;;7.75;4.18;;;;;;;;;;10535731;28;20016;-80
2023/10/04 15:27:45;;;;;;;8.23;3.90;;;;;;;;;;10537384;28;20051;-80
2023/10/04 15:32:53;;;;;;;8.15;3.80;;;;;;;;;;10587995;28;20042;-78
2023/10/04 15:37:59;;;;;;;7.63;3.65;;;;;;;;;;10561095;28;20067;-82
2023/10/04 15:43:01;;;;;;;10.07;3.75;;;;;;;;;;10538485;28;20035;-82
2023/10/04 15:48:09;;;;;;;7.68;3.97;;;;;;;;;;10535673;28;20104;-82
2023/10/04 15:53:10;;;;;;;7.43;3.75;;;;;;;;;;10554623;28;20047;-80
2023/10/04 15:58:11;;;;;;;8.25;3.80;;;;;;;;;;10534388;28;20051;-80
2023/10/04 16:03:15;;;;;;;7.95;3.80;;;;;;;;;;10550477;28;20074;-79
2023/10/04 16:08:16;;;;;;;7.85;3.63;;;;;;;;;;10532827;28;20122;-79
2023/10/04 16:13:17;;;;;;;6.50;3.83;;;;;;;;;;10551142;28;20060;-79
2023/10/04 16:18:18;;;;;;;6.72;3.33;;;;;;;;;;10536439;28;20197;-81
2023/10/04 16:23:19;;;;;;;6.78;3.28;;;;;;;;;;10561492;28;20044;-83
2023/10/04 16:28:21;;;;;;;5.78;3.10;;;;;;;;;;10560271;28;20035;-85
2023/10/04 16:33:22;;;;;;;7.65;3.50;;;;;;;;;;10580662;28;20048;-86
2023/10/04 16:38:24;;;;;;;6.00;2.72;;;;;;;;;;10531703;28;20111;-86
2023/10/04 16:43:29;;;;;;;6.75;2.97;;;;;;;;;;10547122;28;20043;-87
2023/10/04 16:48:43;;;;;;;5.63;3.35;;;;;;;;;;10529274;28;20092;-86
2023/10/04 16:53:44;;;;;;;7.57;3.72;;;;;;;;;;10529508;28;20020;-84
2023/10/04 16:58:51;;;;;;;6.50;3.35;;;;;;;;;;10528815;28;20503;-85
2023/10/04 17:03:59;;;;;;;5.13;2.78;;;;;;;;;;10528004;28;20032;-84
2023/10/04 17:09:00;;;;;;;6.40;3.20;;;;;;;;;;10527772;28;20102;-84
2023/10/04 17:14:01;;;;;;;7.55;3.13;;;;;;;;;;10528901;28;20086;-84
2023/10/04 17:19:03;;;;;;;6.93;3.28;;;;;;;;;;10533460;28;20030;-84
2023/10/04 17:24:05;;;;;;;6.70;3.13;;;;;;;;;;10538437;28;20077;-87
2023/10/04 17:29:06;;;;;;;6.05;3.10;;;;;;;;;;10563690;28;20024;-87
2023/10/04 17:34:08;;;;;;;9.88;3.78;;;;;;;;;;10523065;28;20119;-88
2023/10/04 17:39:11;;;;;;;6.47;3.00;;;;;;;;;;10524306;28;20024;-88
2023/10/04 17:44:12;;;;;;;6.80;3.35;;;;;;;;;;10525043;28;20415;-88
2023/10/04 17:49:13;;;;;;;7.75;2.90;;;;;;;;;;10523659;28;20024;-88
2023/10/04 17:54:15;;;;;;;4.93;2.83;;;;;;;;;;10541886;28;20399;-87
2023/10/04 18:33:29;;;;;;;6.20;2.88;;;;;;;;;;10339616;28;20049;-86
2023/10/04 18:44:14;;;;;;;7.35;2.78;;;;;;;;;;10463560;28;20037;-88
2023/10/04 18:49:17;;;;;;;6.30;3.10;;;;;;;;;;10571351;28;20089;-87
2023/10/04 18:54:41;;;;;;;5.38;2.88;;;;;;;;;;10596457;28;20035;-87
2023/10/04 18:59:43;;;;;;;4.82;2.75;;;;;;;;;;10598612;28;20035;-87
2023/10/04 19:04:49;;;;;;;4.20;2.35;;;;;;;;;;10582909;28;20039;-87
2023/10/04 19:09:53;;;;;;;5.45;2.58;;;;;;;;;;10581308;28;20039;-87
